Willow, Kentucky
Current Conditions -  °F | °C
As of 7:35 PM on Thursday 27 Nov 2014 (Local Time) from KFGX Reporting Station
Light Snow Light Snow  
Wind Chill: 22°   Ceiling: 3400
Heat Index: 29°   Visibility: 7mi
Dew Point: 26°   Wind: 7mph
Humidity: 87%   Direction: 280°W
Pressure: 30.37"   Gusts: NA
Location:  38.6516°N, 84.0942°W
Report Text: KFGX 280035Z AUTO 28006KT 7SM -SN BKN034 OVC039 M01/M03 A3037 RMK AO2 T10151034
Loading
Personal Weather Stations






























Interactive Weather Map New forecast layout! Learn more

10-Day Weather Forecast

Advertisements
Track Severe Weather on mobile